Nicholas Clarke

Scout - Sunderland
17 Feb 2028
Thursday
Process

Personality

Adaptability (6) Ambition (9) Controversy (1) Loyalty (16) Pressure (16) Professionalism (13) Sportsmanship (4) Temperament (5)

Profile

Coaching Style Democratic
License Continental C
Determination 5
Man Management 12
Motivating 7
Discipline 8
Job Satisfaction
100%
Fatigue
0%
Role Scout
Wage 26.3K p/w
Contract 14.03.2029

Performance

Behaviour Good
Training Effectiveness
50%
Player Development
70%
Injury Prevention
70%
Tactical Implementation
45%

Recent Events

Attended a recruitment meeting now
Attended a recruitment meeting 7d ago
Recommended a transfer target 7d ago
Recommended a transfer target 7d ago
Attended a recruitment meeting 14d ago
Recommended a transfer target 14d ago
Recommended a transfer target 14d ago
Presented a dossier to the board 14d ago

Currently Monitoring

134
Player Club Status Ability Confidence Watched Last Observed Latest Vote
James Morris Leyton Orient Lost 125 / 120 76% 1 24.01.2028 Approve
Issa Diop Leyton Orient Lost 142 / 134 76% 1 01.01.2028 -
Dom Ballard Leyton Orient Active 114 / 125 76% 1 05.07.2027 Approve
Jofre Torrents Ajax Active 122 / 130 40% 2 30.05.2027 -
Alexandro Maidana Talleres Active 110 / 122 40% 1 30.05.2027 -
Christ Inao Oulaï Fiorentina Active 130 / 136 40% 4 25.05.2027 -
Dylan Lawlor Cardiff City Active 113 / 126 40% 4 25.05.2027 -
Sascha Britschgi Padova Active 112 / 127 40% 5 25.05.2027 -
Jan Bürger Gillingham Active 104 / 120 40% 3 23.05.2027 -
Eddy Kouadio Crotone Active 99 / 104 40% 2 23.05.2027 -
Josh King Chelsea Active 135 / 142 40% 4 22.05.2027 -
Matías Gómez Granada Active 118 / 123 40% 3 22.05.2027 -
Jarvis Thornton Sheffield Wednesday Active 109 / 108 40% 1 20.05.2027 -
Ernie Weaver AFC Wimbledon Active 110 / 120 40% 2 19.05.2027 -
Christos Mouzakitis Hull City Active 137 / 140 40% 4 16.05.2027 -
Juan Giménez Celta Active 119 / 122 40% 4 15.05.2027 -
Dmitry Pestryakov Dinamo Moscow Active 116 / 127 40% 2 15.05.2027 -
Matvey Kislyak CSKA Moscow Active 130 / 134 40% 3 13.05.2027 -
Eduardo Felicíssimo Sporting CP Active 108 / 117 40% 1 12.05.2027 -
Gonçalo Oliveira Benfica Active 109 / 116 40% 1 12.05.2027 -
Lewis Miley Chelsea Active 143 / 150 40% 3 11.05.2027 -
Ezra Mayers West Ham United Active 111 / 126 40% 4 11.05.2027 -
Samuele di Benedetto Bari Active 106 / 118 40% 1 07.05.2027 -
Nazareno Kihm Ferro Carril Oeste Active 114 / 116 40% 2 06.05.2027 -
Juan Rodríguez Cagliari Active 127 / 123 40% 1 02.05.2027 -
Davide Bartesaghi AC Milan Active 130 / 134 40% 3 01.05.2027 -
Latrell Aken Groningen Active 102 / 116 40% 1 01.05.2027 -
Riley Owen Trento Active 96 / 105 40% 1 01.05.2027 -
Darryl Bakola Padova Active 114 / 116 40% 3 30.04.2027 -
David Ozoh Derby County Active 121 / 128 40% 2 25.04.2027 -
Tiago Freitas Benfica Active 112 / 116 40% 1 25.04.2027 -
Samuel Lucero Defensa y Justicia Active 119 / 119 40% 2 22.04.2027 -
Daniel Kelly Oxford United Active 106 / 114 40% 2 21.04.2027 -
Martin Georgiev Aris Thessaloniki Active 113 / 113 40% 1 21.04.2027 -
Nevot Ratner Maccabi Haifa Active 113 / 117 40% 2 17.04.2027 -
Massien Ghaddari Utrecht Active 111 / 113 40% 1 14.04.2027 -
Caleb Yirenkyi Coventry City Active 132 / 143 40% 2 07.04.2027 -
Valentin Atangana Al-Ahli Active 121 / 140 40% 1 28.03.2027 -
Abdoulaye Kanté Al-Ettifaq Active 126 / 127 40% 1 26.03.2027 -
Jack Hinshelwood Brighton Active 152 / 144 40% 2 25.03.2027 -
James Dornelly Peterborough United Active 101 / 107 40% 1 25.03.2027 -
Noam Ben-Harush Maccabi Haifa Active 104 / 123 40% 2 23.03.2027 -
Johan Manzambi Newcastle United Active 136 / 146 40% 2 20.03.2027 -
Karim Coulibaly RC Strasbourg Active 112 / 132 40% 1 18.03.2027 -
Agustín Medina Valencia Active 118 / 124 40% 1 02.03.2027 -
Cemran Dansin Orlando Pirates Active 111 / 115 40% 1 12.01.2027 -
Dušan Vlahović Juventus Active 158 / 161 40% 1 31.12.2026 -
Patrick Schulte Columbus Crew Active 121 / 119 40% 2 30.12.2026 -
Yousef Salech Cardiff City Active 129 / 125 40% 4 30.12.2026 -
Mateusz Kochalski Dynamo Kyiv Active 124 / 127 40% 2 30.12.2026 -
Assane Diao Lazio Active 148 / 144 40% 1 30.12.2026 -
Lukas Jensen Millwall Active 114 / 114 40% 3 28.12.2026 -
Morgan Whittaker Middlesbrough Active 135 / 133 40% 3 28.12.2026 -
Sam Dalby Bolton Wanderers Active 115 / 113 40% 1 28.12.2026 -
Ilyas Ansah Hull City Lost 135 / 132 40% 1 28.12.2026 -
Bongani Mothiba SuperSport United Active 95 / 79 40% 2 26.12.2026 -
James Trafford Leeds United Active 150 / 143 40% 2 25.12.2026 -
John Pulskamp Sporting Kansas City Active 111 / 112 40% 3 25.12.2026 -
Grégoire Coudert Burnley Active 123 / 132 40% 5 24.12.2026 -
Mykyta Turbaievskyi Zorya Active 122 / 109 40% 1 24.12.2026 -
Dominik Takáč Slovan Bratislava Active 117 / 128 40% 1 24.12.2026 -
Evidence Makgopa Orlando Pirates Active 112 / 118 40% 1 21.12.2026 -
Luis Vázquez Birmingham Active 125 / 124 40% 1 21.12.2026 -
Murphy Cooper Plymouth Argyle Active 120 / 117 40% 1 21.12.2026 -
Oleksandr Saputin Poltava Active 124 / 120 40% 1 21.12.2026 -
Leopold Wahlstedt Rosenborg Active 129 / 111 40% 1 20.12.2026 -
Fahad Hassan Al Shabab Active 128 / 128 40% 1 20.12.2026 -
Samu Maccabi Netanya Active 102 / 116 40% 1 20.12.2026 -
Róbert Boženík Newcastle United Active 121 / 126 40% 1 17.12.2026 -
Mathias Jørgensen Blackburn Rovers Active 111 / 114 40% 1 17.12.2026 -
Diogo Costa Manchester City Active 161 / 158 40% 1 16.12.2026 -
Pedro Cejas Zabbar St. Patrick Active 92 / 89 40% 1 14.12.2026 -
Mateo Retegui Tottenham Active 156 / 158 40% 1 14.12.2026 -
Themba Ngcobo SuperSport United Active 127 / 117 40% 3 13.12.2026 -
Josh Sargent Toronto FC Active 129 / 133 40% 1 13.12.2026 -
Nicolás Sumavil Platense Active 118 / 121 40% 3 11.12.2026 -
Aune Heggebø West Bromwich Albion Active 125 / 126 40% 2 11.12.2026 -
Kenan Dervišagić Floriana Active 109 / 101 40% 2 11.12.2026 -
Tom Cannon Sheffield United Active 127 / 128 40% 1 11.12.2026 -
Kévin Denkey FC Cincinnati Active 130 / 121 40% 2 09.12.2026 -
Bento Al-Nassr Active 129 / 129 40% 2 07.12.2026 -
Louis Munteanu DC United Active 118 / 126 40% 1 03.12.2026 -
Gabriel Martinelli Brighton Active 156 / 157 40% 2 30.11.2026 -
Radek Vítek Middlesbrough Active 137 / 140 40% 3 28.11.2026 -
George Wickens Lincoln City Active 122 / 117 40% 2 27.11.2026 -
Mandla Mahlangu Ajax Cape Town Active 109 / 106 40% 2 27.11.2026 -
Duncan McGuire Houston Dynamo Active 115 / 130 40% 2 27.11.2026 -
Mohammed Kudus Tottenham Active 149 / 157 40% 1 26.11.2026 -
Pascal Loretz Luzern Active 120 / 126 40% 4 25.11.2026 -
Elías Rafn Ólafsson FC Midtjylland Active 126 / 118 40% 1 25.11.2026 -
Randal Kolo Muani Juventus Active 154 / 149 40% 1 24.11.2026 -
Pablo Felipe West Ham United Active 133 / 138 40% 1 24.11.2026 -
Sagir Arce Paralimni Active 111 / 98 40% 1 24.11.2026 -
Tomás Chancalay Minnesota United FC Active 121 / 121 40% 3 21.11.2026 -
Matevž Vidovšek Olimpija Ljubljana Active 110 / 113 40% 1 19.11.2026 -
Tyreece Simpson Maritzburg United Active 81 / 90 40% 1 19.11.2026 -
Gonzalo Fulham Active 137 / 146 40% 1 18.11.2026 -
Niklas Steffen Thun Active 123 / 118 40% 1 16.11.2026 -
Agustín Anello Philadelphia Union Active 116 / 117 40% 2 10.11.2026 -
Jesus Ferreira Seattle Sounders Active 140 / 129 40% 1 10.11.2026 -
Iliman N'Diaye Everton Active 152 / 160 40% 2 09.11.2026 -
Dejan Joveljić Seattle Sounders Active 138 / 123 40% 1 09.11.2026 -
Martín Ojeda Orlando City Active 139 / 127 40% 3 08.11.2026 -
Lorent Tolaj Plymouth Argyle Active 127 / 114 40% 1 08.11.2026 -
Fedor Lapoukhov CSKA Sofia Active 112 / 119 40% 1 06.11.2026 -
Luka Gavran Toronto FC Active 99 / 105 40% 1 06.11.2026 -
Joe Gelhardt Hull City Active 123 / 129 40% 1 06.11.2026 -
Kwame Opoku Asante Kotoko Active 111 / 91 40% 1 05.11.2026 -
Bamba Dieng Crvena Zvezda Active 142 / 120 40% 1 05.11.2026 -
Caoimhin Kelleher Brentford Active 150 / 148 40% 2 02.11.2026 -
Lucas Lund Viborg Active 102 / 115 40% 1 02.11.2026 -
Niall Ennis Blackpool Active 115 / 115 40% 1 01.11.2026 -
Thiago Brentford Active 154 / 144 40% 1 30.10.2026 -
Theo Corbeanu Toronto FC Active 115 / 120 40% 1 29.10.2026 -
Leonardo Campana New England Revolution Active 138 / 124 40% 1 28.10.2026 -
Kazuki Fujita Avispa Fukuoka Active 127 / 123 40% 1 25.10.2026 -
Cody Gakpo Liverpool Active 157 / 157 40% 1 23.10.2026 -
Cameron Archer Southampton Active 118 / 129 40% 1 23.10.2026 -
Mads Hermansen West Ham United Active 130 / 134 40% 1 23.10.2026 -
Luis Ingolotti Atlético Tucumán Active 126 / 123 40% 1 23.10.2026 -
Bilal Bayazıt Kayserispor Active 109 / 124 40% 1 23.10.2026 -
CJ dos Santos San Diego Football Club Active 103 / 104 40% 1 20.10.2026 -
Manuel Roffo Cerro Porteno Active 125 / 125 40% 1 18.10.2026 -
Abduvohid Ne'matov Nasaf Active 115 / 114 40% 1 17.10.2026 -
Bénie Traoré New York City Active 126 / 123 40% 1 13.10.2026 -
Cheikh Sabaly Vancouver Whitecaps Active 120 / 124 40% 1 10.10.2026 -
Roman Celentano FC Cincinnati Active 126 / 118 40% 3 09.10.2026 -
Samuel Anakwe Remo Stars Active 87 / 98 40% 1 08.10.2026 -
Yeangel Montero Naxxar Lions Active 96 / 106 40% 1 08.10.2026 -
Diego Romero Universitario Active 118 / 122 40% 1 04.10.2026 -
Michael Cooper Sheffield United Active 119 / 124 40% 1 01.10.2026 -
Rodrigo Morínigo Libertad Active 121 / 115 40% 1 22.09.2026 -
Jan Koutný Sigma Olomouc Active 106 / 120 40% 1 20.09.2026 -
Derry Murkin Derby County Active 125 / 124 69% 1 24.08.2026 Approve